Alturas Rancheria, California
Current Conditions -  °F | °C
As of 3:55 AM on Tuesday 27 Jan 2015 (Local Time) from KAAT Reporting Station
Clear Clear  
Wind Chill: 31°   Ceiling: Unl
Heat Index: 31°   Visibility: 9mi
Dew Point: 28°   Wind: 0mph
Humidity: 89%   Direction: NA
Pressure: 30.05"   Gusts: NA
Location:  41.4836°N, 120.55°W
Report Text: KAAT 271155Z AUTO 00000KT 9SM CLR M01/M02 A3005 RMK AO2 SLP163 T10061022 10033 21011 51003
Loading
Personal Weather Stations






























Interactive Weather Map New forecast layout! Learn more

10-Day Weather Forecast

Advertisements
Track Severe Weather on mobile